ADDS METAR Data INFO
IDs: Format: Raw Decoded Include TAF

Data at: 1949 UTC 18 Feb 2018

KDXR 181853Z 32006KT 10SM CLR 06/M07 A3032 RMK AO2 SLP270 T00561067
KDXR 181753Z 32004G15KT 10SM CLR 04/M06 A3031 RMK AO2 SLP268 T00441061 10050 20000 51036 $
KDXR 181653Z 31008KT 10SM CLR 04/M06 A3029 RMK AO2 SLP259 T00391061 $
KDXR 181553Z VRB06KT 10SM FEW042 03/M06 A3026 RMK AO2 SLP251 T00331061 $
KDXR 181453Z 36011KT 10SM CLR 02/M06 A3021 RMK AO2 SLP232 T00221061 51046 $
KDXR 181353Z 33012G22KT 10SM 02/M06 A3018 RMK AO2 SLP224 T00171056 $
KDXR 181253Z 30007KT 270V330 10SM CLR 01/M03 A3014 RMK AO2 SLP209 T00111033 $
KDXR 181153Z 29007KT 10SM CLR 00/M03 A3007 RMK AO2 SLP186 60000 70049 I1000 I6007 T00001028 10006 21006 51038 $
KDXR 181053Z AUTO 27007KT 10SM CLR 00/M02 A3003 RMK AO2 SLP174 T00001022 $
KDXR 180953Z AUTO 26005KT 10SM OVC055 00/M02 A2999 RMK AO2 SNB12E30 SLP160 P0000 I1003 T00001017 $
KDXR 180926Z AUTO 27004KT 7SM -SN SCT010 BKN031 OVC060 00/M02 A2998 RMK AO2 SNB12 P0000 I1000 T00001017 $
KDXR 180853Z AUTO 00000KT 10SM OVC010 00/M01 A2996 RMK AO2 SLP147 60000 I1004 I3004 T00001011 53000 $
KDXR 180843Z AUTO 27003KT 10SM OVC009 00/M02 A2996 RMK AO2 CIG 007V012 I1004 T00001017 $
KDXR 180753Z AUTO 25003KT 5SM BR OVC010 M01/M02 A2994 RMK AO2 SNB0656E45 SLP142 P0000 I1000 T10061017 $
KDXR 180740Z AUTO 00000KT 2SM -SN BR OVC011 M01/M02 A2993 RMK AO2 SNB0656 P0000 T10061017 $
KDXR 180725Z AUTO 00000KT 3SM -SN BR OVC011 M01/M01 A2994 RMK AO2 SNB0656 P0000 T10061011 $
KDXR 180706Z AUTO 00000KT 2SM -SN BR OVC007 M01/M02 A2995 RMK AO2 SNB0656 P0000 T10061017 $
KDXR 180653Z AUTO 00000KT 5SM BR OVC008 M01/M02 A2994 RMK AO2 SNE24 SLP142 P0000 T10061017 $
KDXR 180628Z AUTO 00000KT 4SM BR OVC009 M01/M01 A2995 RMK AO2 SNE24 P0000 T10061011 $
KDXR 180618Z AUTO 00000KT 2 1/2SM -SN BR OVC009 M01/M01 A2995 RMK AO2 P0000 T10061011 $
KDXR 180553Z AUTO 00000KT 1 1/2SM -SN BR OVC009 M01/M01 A2995 RMK AO2 SLP146 P0002 60046 T10061011 10000 21006 58039 $
KDXR 180503Z AUTO 00000KT 1 1/4SM -SN BR OVC011 00/M01 A3000 RMK AO2 P0000 T00001011 $
KDXR 180453Z AUTO 00000KT 1 1/4SM -SN BR OVC009 00/M01 A3000 RMK AO2 SLP163 P0005 T00001011 400391050 $
KDXR 180419Z AUTO 00000KT 1 1/2SM -SN BR OVC006 00/M01 A3003 RMK AO2 P0002 T00001011 $
KDXR 180407Z AUTO 00000KT 1SM -SN BR VV006 00/M01 A3004 RMK AO2 P0002 T00001006 $
KDXR 180353Z AUTO 00000KT 1/2SM SN FG 00/M01 A3005 RMK AO2 SLP180 P0008 T00001011 $
KDXR 180327Z AUTO 00000KT 1/2SM SN FG 00/M01 A3007 RMK AO2 P0005 T00001011 $
KDXR 180253Z AUTO 36003KT 3/4SM -SN BR VV007 00/M01 A3007 RMK AO2 SLP187 P0009 60031 T00001011 58047 $
KDXR 180230Z AUTO 07003KT 1/2SM SN FG VV006 00/M01 A3008 RMK AO2 PRESFR P0006 T00001011 $
KDXR 180153Z AUTO 00000KT 1/2SM SN FG 00/M01 A3012 RMK AO2 SLP203 P0013 T00001011 $
KDXR 180100Z AUTO 00000KT 1/2SM SN FZFG M01/M02 A3017 RMK AO2 PRESFR P0002 T10061017 $
KDXR 180053Z 00000KT 1/2SM SN FZFG VV005 M01/M01 A3018 RMK AO2 SLP226 P0009 T10061011 $
KDXR 180021Z 00000KT 1/2SM SN FZFG VV008 M01/M02 A3019 RMK AO2 P0003 T10061017
KDXR 172353Z 15004KT 3/4SM -SN BR VV010 M01/M02 A3021 RMK AO2 SLP236 P0003 60003 T10111022 10039 21011 58022
KDXR 172321Z 13003KT 3/4SM -SN BR VV013 M01/M03 A3022 RMK AO2 P0001 T10061028
KDXR 172315Z 00000KT 1SM -SN VV015 M01/M03 A3022 RMK AO2 P0000 T10061033
KDXR 172308Z 12004KT 1 1/4SM -SN OVC021 M01/M04 A3022 RMK AO2 P0000 T10061039
KDXR 172300Z 12005KT 2SM -SN OVC027 00/M04 A3023 RMK AO2 P0000 T00001044
KDXR 172253Z 10005KT 6SM -SN OVC034 01/M05 A3023 RMK AO2 SNB13 PRESFR SLP239 P0000 T00061050
KDXR 172235Z 13003KT 6SM -SN OVC034 01/M06 A3026 RMK AO2 SNB13 P0000 T00061056
KDXR 172218Z 18003KT 7SM -SN BKN027 OVC033 01/M06 A3026 RMK AO2 SNB13 P0000 T00061061
KDXR 172153Z 19004KT 10SM BKN035 OVC095 01/M07 A3026 RMK AO2 SLP252 T00061067
KDXR 172053Z 17007KT 150V230 10SM FEW120 01/M08 A3028 RMK AO2 SLP257 T00111078 56011
KDXR 171953Z 17010G19KT 10SM CLR 02/M09 A3030 RMK AO2 SLP264 T00171089
KDXR 171853Z 16006G15KT 10SM CLR 03/M10 A3029 RMK AO2 SLP259 T00281100
KDXR 171753Z 17007KT 10SM CLR 03/M11 A3031 RMK AO2 SLP267 T00331111 10039 21050 56031
KDXR 171653Z 00000KT 10SM CLR 02/M09 A3034 RMK AO2 SLP277 T00221094
KDXR 171553Z 36004KT 10SM CLR 01/M09 A3037 RMK AO2 SLP286 T00111089
KDXR 171453Z VRB03KT 10SM CLR 00/M08 A3040 RMK AO2 SLP299 T00001083 50009
KDXR 171353Z 09004KT 10SM CLR M01/M08 A3041 RMK AO2 SLP299 T10111083
KDXR 171253Z 00000KT 10SM CLR M04/M08 A3040 RMK AO2 SLP297 T10391078
KDXR 171153Z 00000KT 10SM CLR M03/M09 A3038 RMK AO2 SLP289 70002 T10331089 10006 21044 53027
KDXR 171053Z AUTO VRB03KT 10SM CLR M03/M09 A3034 RMK AO2 SLP279 T10281094
KDXR 170953Z AUTO 36006KT 10SM CLR M02/M09 A3032 RMK AO2 SLP269 T10221089
KDXR 170853Z AUTO 36007KT 10SM CLR M02/M09 A3029 RMK AO2 SLP261 T10171089 51038
KDXR 170753Z AUTO 01010G18KT 10SM CLR M01/M09 A3026 RMK AO2 SLP251 T10111089